Terminal Aerodrome Forecast
Issued by NWS

Home | Current Version | Previous Version | Text Only | Print | Product List | Glossary On
Versions: 1 2 3 4 5 6 7 8 9 10 11 12 13 14 15 16 17 18 19 20 21 22 23 24 25 26 27
043
FTUS42 KJAX 201720
TAFVQQ
TAF
KVQQ 201720Z 2018/2118 23009G17KT P6SM BKN035
      TEMPO 2018/2019 BKN025
     FM202300 22006KT P6SM SCT050 BKN250
     FM210600 21005KT 2SM BR SCT003
     FM210900 20002KT 1/2SM FG BKN002
     FM211400 20005KT 6SM BR BKN007
     FM211500 20007KT P6SM BKN015
     FM211700 21009G15KT P6SM VCTS BKN030CB=

USA.gov is the U.S. government's official web portal to all federal, state and local government web resources and services.